sensor_id;sensor_type;location;lat;lon;timestamp;P1;durP1;ratioP1;P2;durP2;ratioP2
8594;SDS011;4335;48.860;9.198;2023-06-26T00:02:15;9.40;;;7.40;;
8594;SDS011;4335;48.860;9.198;2023-06-26T00:04:43;8.87;;;7.30;;
8594;SDS011;4335;48.860;9.198;2023-06-26T00:07:16;9.37;;;7.60;;
8594;SDS011;4335;48.860;9.198;2023-06-26T00:09:48;8.03;;;7.23;;
8594;SDS011;4335;48.860;9.198;2023-06-26T00:12:15;11.27;;;7.50;;
8594;SDS011;4335;48.860;9.198;2023-06-26T00:14:45;8.53;;;7.63;;
8594;SDS011;4335;48.860;9.198;2023-06-26T00:17:13;7.93;;;7.10;;
8594;SDS011;4335;48.860;9.198;2023-06-26T00:19:40;8.57;;;7.53;;
8594;SDS011;4335;48.860;9.198;2023-06-26T00:22:08;8.73;;;7.30;;
8594;SDS011;4335;48.860;9.198;2023-06-26T00:24:39;7.87;;;7.07;;
8594;SDS011;4335;48.860;9.198;2023-06-26T00:27:06;10.20;;;7.67;;
8594;SDS011;4335;48.860;9.198;2023-06-26T00:29:43;8.23;;;7.33;;
8594;SDS011;4335;48.860;9.198;2023-06-26T00:32:10;8.97;;;7.10;;
8594;SDS011;4335;48.860;9.198;2023-06-26T00:34:41;8.30;;;7.27;;
8594;SDS011;4335;48.860;9.198;2023-06-26T00:37:08;8.17;;;6.93;;
8594;SDS011;4335;48.860;9.198;2023-06-26T00:39:39;7.73;;;6.97;;
8594;SDS011;4335;48.860;9.198;2023-06-26T00:42:07;9.30;;;7.80;;
8594;SDS011;4335;48.860;9.198;2023-06-26T00:44:34;9.30;;;8.20;;
8594;SDS011;4335;48.860;9.198;2023-06-26T00:47:06;9.43;;;8.30;;
8594;SDS011;4335;48.860;9.198;2023-06-26T00:49:36;8.70;;;7.50;;
8594;SDS011;4335;48.860;9.198;2023-06-26T00:52:06;10.10;;;7.80;;
8594;SDS011;4335;48.860;9.198;2023-06-26T00:54:34;8.90;;;7.33;;
8594;SDS011;4335;48.860;9.198;2023-06-26T00:57:09;9.47;;;7.77;;
8594;SDS011;4335;48.860;9.198;2023-06-26T00:59:36;8.73;;;7.83;;
8594;SDS011;4335;48.860;9.198;2023-06-26T01:02:04;8.70;;;7.63;;
8594;SDS011;4335;48.860;9.198;2023-06-26T01:04:32;7.90;;;7.10;;
8594;SDS011;4335;48.860;9.198;2023-06-26T01:07:00;8.53;;;7.73;;
8594;SDS011;4335;48.860;9.198;2023-06-26T01:09:29;8.70;;;7.20;;
8594;SDS011;4335;48.860;9.198;2023-06-26T01:11:57;8.10;;;7.30;;
8594;SDS011;4335;48.860;9.198;2023-06-26T01:14:26;7.50;;;6.77;;
8594;SDS011;4335;48.860;9.198;2023-06-26T01:17:03;9.30;;;7.97;;
8594;SDS011;4335;48.860;9.198;2023-06-26T01:19:31;8.03;;;7.20;;
8594;SDS011;4335;48.860;9.198;2023-06-26T01:22:02;8.30;;;7.23;;
8594;SDS011;4335;48.860;9.198;2023-06-26T01:24:42;8.93;;;7.43;;
8594;SDS011;4335;48.860;9.198;2023-06-26T01:27:28;8.10;;;7.17;;
8594;SDS011;4335;48.860;9.198;2023-06-26T01:30:02;9.63;;;6.73;;
8594;SDS011;4335;48.860;9.198;2023-06-26T01:32:30;9.33;;;8.10;;
8594;SDS011;4335;48.860;9.198;2023-06-26T01:34:58;8.43;;;7.57;;
8594;SDS011;4335;48.860;9.198;2023-06-26T01:37:26;8.33;;;7.37;;
8594;SDS011;4335;48.860;9.198;2023-06-26T01:39:59;11.57;;;7.97;;
8594;SDS011;4335;48.860;9.198;2023-06-26T01:42:32;9.47;;;7.70;;
8594;SDS011;4335;48.860;9.198;2023-06-26T01:45:00;8.77;;;7.17;;
8594;SDS011;4335;48.860;9.198;2023-06-26T01:47:33;8.67;;;7.57;;
8594;SDS011;4335;48.860;9.198;2023-06-26T01:50:11;8.57;;;7.47;;
8594;SDS011;4335;48.860;9.198;2023-06-26T01:52:52;9.63;;;7.57;;
8594;SDS011;4335;48.860;9.198;2023-06-26T01:55:28;10.10;;;7.73;;
8594;SDS011;4335;48.860;9.198;2023-06-26T01:58:02;9.07;;;8.07;;
8594;SDS011;4335;48.860;9.198;2023-06-26T02:00:30;9.00;;;7.83;;
8594;SDS011;4335;48.860;9.198;2023-06-26T02:03:08;7.63;;;6.83;;
8594;SDS011;4335;48.860;9.198;2023-06-26T02:05:36;7.97;;;7.03;;
8594;SDS011;4335;48.860;9.198;2023-06-26T02:08:03;8.90;;;7.33;;
8594;SDS011;4335;48.860;9.198;2023-06-26T02:10:31;8.50;;;7.27;;
8594;SDS011;4335;48.860;9.198;2023-06-26T02:13:14;7.50;;;6.80;;
8594;SDS011;4335;48.860;9.198;2023-06-26T02:15:51;9.10;;;8.00;;
8594;SDS011;4335;48.860;9.198;2023-06-26T02:18:19;8.37;;;7.47;;
8594;SDS011;4335;48.860;9.198;2023-06-26T02:20:50;9.03;;;7.83;;
8594;SDS011;4335;48.860;9.198;2023-06-26T02:23:18;7.70;;;6.70;;
8594;SDS011;4335;48.860;9.198;2023-06-26T02:25:48;8.93;;;7.37;;
8594;SDS011;4335;48.860;9.198;2023-06-26T02:28:28;8.87;;;6.90;;
8594;SDS011;4335;48.860;9.198;2023-06-26T02:31:14;9.33;;;7.60;;
8594;SDS011;4335;48.860;9.198;2023-06-26T02:33:47;8.67;;;7.33;;
8594;SDS011;4335;48.860;9.198;2023-06-26T02:36:21;9.23;;;7.60;;
8594;SDS011;4335;48.860;9.198;2023-06-26T02:38:51;9.93;;;8.53;;
8594;SDS011;4335;48.860;9.198;2023-06-26T02:41:21;11.17;;;7.63;;
8594;SDS011;4335;48.860;9.198;2023-06-26T02:43:50;10.00;;;8.27;;
8594;SDS011;4335;48.860;9.198;2023-06-26T02:46:17;10.63;;;8.77;;
8594;SDS011;4335;48.860;9.198;2023-06-26T02:48:48;11.07;;;8.17;;
8594;SDS011;4335;48.860;9.198;2023-06-26T02:51:21;9.13;;;7.97;;
8594;SDS011;4335;48.860;9.198;2023-06-26T02:53:54;9.13;;;7.73;;
8594;SDS011;4335;48.860;9.198;2023-06-26T02:56:25;9.63;;;7.50;;
8594;SDS011;4335;48.860;9.198;2023-06-26T02:58:55;10.33;;;8.10;;
8594;SDS011;4335;48.860;9.198;2023-06-26T03:01:25;8.27;;;7.27;;
8594;SDS011;4335;48.860;9.198;2023-06-26T03:03:54;11.03;;;8.73;;
8594;SDS011;4335;48.860;9.198;2023-06-26T03:06:21;8.17;;;7.37;;
8594;SDS011;4335;48.860;9.198;2023-06-26T03:08:49;9.37;;;7.63;;
8594;SDS011;4335;48.860;9.198;2023-06-26T03:11:19;8.50;;;7.60;;
8594;SDS011;4335;48.860;9.198;2023-06-26T03:13:47;9.47;;;7.57;;
8594;SDS011;4335;48.860;9.198;2023-06-26T03:16:16;8.50;;;7.57;;
8594;SDS011;4335;48.860;9.198;2023-06-26T03:18:43;9.47;;;7.77;;
8594;SDS011;4335;48.860;9.198;2023-06-26T03:21:10;8.87;;;7.60;;
8594;SDS011;4335;48.860;9.198;2023-06-26T03:23:38;9.77;;;8.00;;
8594;SDS011;4335;48.860;9.198;2023-06-26T03:26:05;8.03;;;7.17;;
8594;SDS011;4335;48.860;9.198;2023-06-26T03:28:33;9.07;;;7.87;;
8594;SDS011;4335;48.860;9.198;2023-06-26T03:31:06;8.67;;;7.47;;
8594;SDS011;4335;48.860;9.198;2023-06-26T03:33:38;9.43;;;8.33;;
8594;SDS011;4335;48.860;9.198;2023-06-26T03:36:06;9.00;;;7.87;;
8594;SDS011;4335;48.860;9.198;2023-06-26T03:38:43;9.20;;;7.57;;
8594;SDS011;4335;48.860;9.198;2023-06-26T03:41:10;9.00;;;7.40;;
8594;SDS011;4335;48.860;9.198;2023-06-26T03:43:38;8.63;;;7.27;;
8594;SDS011;4335;48.860;9.198;2023-06-26T03:46:08;9.63;;;7.80;;
8594;SDS011;4335;48.860;9.198;2023-06-26T03:48:36;9.77;;;7.80;;
8594;SDS011;4335;48.860;9.198;2023-06-26T03:51:11;10.00;;;7.83;;
8594;SDS011;4335;48.860;9.198;2023-06-26T03:53:41;9.37;;;7.70;;
8594;SDS011;4335;48.860;9.198;2023-06-26T03:56:21;9.27;;;8.33;;
8594;SDS011;4335;48.860;9.198;2023-06-26T03:58:52;10.47;;;7.83;;
8594;SDS011;4335;48.860;9.198;2023-06-26T04:01:25;8.60;;;7.70;;
8594;SDS011;4335;48.860;9.198;2023-06-26T04:03:57;9.20;;;7.67;;
8594;SDS011;4335;48.860;9.198;2023-06-26T04:06:26;8.03;;;7.20;;
8594;SDS011;4335;48.860;9.198;2023-06-26T04:08:53;8.83;;;7.43;;
8594;SDS011;4335;48.860;9.198;2023-06-26T04:11:24;9.33;;;8.10;;
8594;SDS011;4335;48.860;9.198;2023-06-26T04:13:54;9.37;;;7.93;;
8594;SDS011;4335;48.860;9.198;2023-06-26T04:16:34;9.90;;;6.90;;
8594;SDS011;4335;48.860;9.198;2023-06-26T04:19:10;10.30;;;7.63;;
8594;SDS011;4335;48.860;9.198;2023-06-26T04:21:38;9.53;;;7.40;;
8594;SDS011;4335;48.860;9.198;2023-06-26T04:24:06;9.37;;;7.50;;
8594;SDS011;4335;48.860;9.198;2023-06-26T04:26:34;9.03;;;7.83;;
8594;SDS011;4335;48.860;9.198;2023-06-26T04:29:04;10.33;;;7.67;;
8594;SDS011;4335;48.860;9.198;2023-06-26T04:31:31;10.60;;;7.80;;
8594;SDS011;4335;48.860;9.198;2023-06-26T04:33:59;8.17;;;7.17;;
8594;SDS011;4335;48.860;9.198;2023-06-26T04:36:31;10.23;;;8.10;;
8594;SDS011;4335;48.860;9.198;2023-06-26T04:38:58;9.00;;;7.70;;
8594;SDS011;4335;48.860;9.198;2023-06-26T04:41:29;9.43;;;7.87;;
8594;SDS011;4335;48.860;9.198;2023-06-26T04:43:57;10.83;;;8.07;;
8594;SDS011;4335;48.860;9.198;2023-06-26T04:46:24;9.00;;;7.03;;
8594;SDS011;4335;48.860;9.198;2023-06-26T04:48:53;8.00;;;7.13;;
8594;SDS011;4335;48.860;9.198;2023-06-26T04:51:23;7.93;;;7.13;;
8594;SDS011;4335;48.860;9.198;2023-06-26T04:53:53;9.98;;;7.65;;
8594;SDS011;4335;48.860;9.198;2023-06-26T04:56:21;8.60;;;7.20;;
8594;SDS011;4335;48.860;9.198;2023-06-26T04:58:48;8.98;;;8.07;;
8594;SDS011;4335;48.860;9.198;2023-06-26T05:01:15;8.45;;;7.53;;
8594;SDS011;4335;48.860;9.198;2023-06-26T05:03:46;9.50;;;7.60;;
8594;SDS011;4335;48.860;9.198;2023-06-26T05:06:16;10.70;;;8.80;;
8594;SDS011;4335;48.860;9.198;2023-06-26T05:08:50;10.82;;;7.95;;
8594;SDS011;4335;48.860;9.198;2023-06-26T05:11:22;12.80;;;10.60;;
8594;SDS011;4335;48.860;9.198;2023-06-26T05:13:49;11.05;;;9.18;;
8594;SDS011;4335;48.860;9.198;2023-06-26T05:16:17;12.05;;;10.15;;
8594;SDS011;4335;48.860;9.198;2023-06-26T05:18:44;9.90;;;8.90;;
8594;SDS011;4335;48.860;9.198;2023-06-26T05:21:14;12.68;;;9.60;;
8594;SDS011;4335;48.860;9.198;2023-06-26T05:23:42;9.45;;;8.45;;
8594;SDS011;4335;48.860;9.198;2023-06-26T05:26:41;10.75;;;8.18;;
8594;SDS011;4335;48.860;9.198;2023-06-26T05:29:13;9.02;;;8.07;;
8594;SDS011;4335;48.860;9.198;2023-06-26T05:31:40;11.20;;;8.65;;
8594;SDS011;4335;48.860;9.198;2023-06-26T05:34:08;10.15;;;8.05;;
8594;SDS011;4335;48.860;9.198;2023-06-26T05:36:45;9.20;;;7.70;;
8594;SDS011;4335;48.860;9.198;2023-06-26T05:39:18;11.90;;;8.20;;
8594;SDS011;4335;48.860;9.198;2023-06-26T05:41:47;11.13;;;7.70;;
8594;SDS011;4335;48.860;9.198;2023-06-26T05:44:15;10.35;;;8.65;;
8594;SDS011;4335;48.860;9.198;2023-06-26T05:46:45;11.02;;;8.57;;
8594;SDS011;4335;48.860;9.198;2023-06-26T05:49:13;9.98;;;7.85;;
8594;SDS011;4335;48.860;9.198;2023-06-26T05:51:43;8.70;;;7.68;;
8594;SDS011;4335;48.860;9.198;2023-06-26T05:54:11;8.75;;;7.60;;
8594;SDS011;4335;48.860;9.198;2023-06-26T05:56:42;10.93;;;7.35;;
8594;SDS011;4335;48.860;9.198;2023-06-26T05:59:12;9.85;;;7.75;;
8594;SDS011;4335;48.860;9.198;2023-06-26T06:01:41;11.55;;;7.45;;
8594;SDS011;4335;48.860;9.198;2023-06-26T06:04:08;10.93;;;7.50;;
8594;SDS011;4335;48.860;9.198;2023-06-26T06:06:35;7.97;;;6.70;;
8594;SDS011;4335;48.860;9.198;2023-06-26T06:09:06;9.20;;;8.15;;
8594;SDS011;4335;48.860;9.198;2023-06-26T06:11:33;9.30;;;8.00;;
8594;SDS011;4335;48.860;9.198;2023-06-26T06:14:03;12.52;;;7.57;;
8594;SDS011;4335;48.860;9.198;2023-06-26T06:16:35;13.43;;;8.50;;
8594;SDS011;4335;48.860;9.198;2023-06-26T06:19:02;9.25;;;7.68;;
8594;SDS011;4335;48.860;9.198;2023-06-26T06:21:35;10.48;;;7.50;;
8594;SDS011;4335;48.860;9.198;2023-06-26T06:24:08;8.98;;;7.60;;
8594;SDS011;4335;48.860;9.198;2023-06-26T06:26:39;8.90;;;7.30;;
8594;SDS011;4335;48.860;9.198;2023-06-26T06:29:06;11.88;;;8.43;;
8594;SDS011;4335;48.860;9.198;2023-06-26T06:31:41;9.25;;;7.30;;
8594;SDS011;4335;48.860;9.198;2023-06-26T06:34:08;9.43;;;8.10;;
8594;SDS011;4335;48.860;9.198;2023-06-26T06:36:38;9.35;;;8.45;;
8594;SDS011;4335;48.860;9.198;2023-06-26T06:39:06;10.07;;;7.47;;
8594;SDS011;4335;48.860;9.198;2023-06-26T06:41:37;14.77;;;7.60;;
8594;SDS011;4335;48.860;9.198;2023-06-26T06:44:04;8.93;;;8.02;;
8594;SDS011;4335;48.860;9.198;2023-06-26T06:46:32;8.63;;;6.93;;
8594;SDS011;4335;48.860;9.198;2023-06-26T06:49:04;8.40;;;7.30;;
8594;SDS011;4335;48.860;9.198;2023-06-26T06:51:34;9.80;;;6.93;;
8594;SDS011;4335;48.860;9.198;2023-06-26T06:54:04;10.18;;;7.10;;
8594;SDS011;4335;48.860;9.198;2023-06-26T06:56:35;10.90;;;9.23;;
8594;SDS011;4335;48.860;9.198;2023-06-26T06:59:02;9.25;;;8.35;;
8594;SDS011;4335;48.860;9.198;2023-06-26T07:01:33;11.40;;;8.00;;
8594;SDS011;4335;48.860;9.198;2023-06-26T07:04:00;8.35;;;6.85;;
8594;SDS011;4335;48.860;9.198;2023-06-26T07:06:32;7.95;;;7.07;;
8594;SDS011;4335;48.860;9.198;2023-06-26T07:09:02;8.30;;;6.80;;
8594;SDS011;4335;48.860;9.198;2023-06-26T07:11:33;8.73;;;6.90;;
8594;SDS011;4335;48.860;9.198;2023-06-26T07:14:01;8.00;;;6.90;;
8594;SDS011;4335;48.860;9.198;2023-06-26T07:16:31;7.53;;;6.63;;
8594;SDS011;4335;48.860;9.198;2023-06-26T07:19:02;7.70;;;6.90;;
8594;SDS011;4335;48.860;9.198;2023-06-26T07:21:37;11.63;;;7.22;;
8594;SDS011;4335;48.860;9.198;2023-06-26T07:24:07;7.82;;;7.10;;
8594;SDS011;4335;48.860;9.198;2023-06-26T07:26:34;7.28;;;6.63;;
8594;SDS011;4335;48.860;9.198;2023-06-26T07:29:02;8.13;;;5.85;;
8594;SDS011;4335;48.860;9.198;2023-06-26T07:31:30;8.68;;;6.88;;
8594;SDS011;4335;48.860;9.198;2023-06-26T07:34:03;7.70;;;6.88;;
8594;SDS011;4335;48.860;9.198;2023-06-26T07:36:33;7.63;;;6.93;;
8594;SDS011;4335;48.860;9.198;2023-06-26T07:39:08;7.32;;;6.63;;
8594;SDS011;4335;48.860;9.198;2023-06-26T07:41:36;8.77;;;7.13;;
8594;SDS011;4335;48.860;9.198;2023-06-26T07:44:11;6.60;;;6.00;;
8594;SDS011;4335;48.860;9.198;2023-06-26T07:46:39;7.10;;;6.40;;
8594;SDS011;4335;48.860;9.198;2023-06-26T07:49:13;9.38;;;6.90;;
8594;SDS011;4335;48.860;9.198;2023-06-26T07:51:42;7.75;;;6.35;;
8594;SDS011;4335;48.860;9.198;2023-06-26T07:54:09;7.15;;;6.50;;
8594;SDS011;4335;48.860;9.198;2023-06-26T07:56:52;8.60;;;7.80;;
8594;SDS011;4335;48.860;9.198;2023-06-26T07:59:20;7.25;;;6.55;;
8594;SDS011;4335;48.860;9.198;2023-06-26T08:01:48;8.00;;;7.22;;
8594;SDS011;4335;48.860;9.198;2023-06-26T08:04:20;7.40;;;6.30;;
8594;SDS011;4335;48.860;9.198;2023-06-26T08:06:50;8.40;;;7.45;;
8594;SDS011;4335;48.860;9.198;2023-06-26T08:09:21;7.40;;;6.70;;
8594;SDS011;4335;48.860;9.198;2023-06-26T08:11:50;8.18;;;7.38;;
8594;SDS011;4335;48.860;9.198;2023-06-26T08:14:18;9.85;;;7.82;;
8594;SDS011;4335;48.860;9.198;2023-06-26T08:16:48;6.68;;;6.05;;
8594;SDS011;4335;48.860;9.198;2023-06-26T08:19:16;7.40;;;6.80;;
8594;SDS011;4335;48.860;9.198;2023-06-26T08:21:44;5.75;;;5.25;;
8594;SDS011;4335;48.860;9.198;2023-06-26T08:24:14;6.15;;;5.00;;
8594;SDS011;4335;48.860;9.198;2023-06-26T08:26:49;5.95;;;5.35;;
8594;SDS011;4335;48.860;9.198;2023-06-26T08:29:17;6.40;;;5.07;;
8594;SDS011;4335;48.860;9.198;2023-06-26T08:31:44;6.15;;;5.63;;
8594;SDS011;4335;48.860;9.198;2023-06-26T08:34:11;5.63;;;5.13;;
8594;SDS011;4335;48.860;9.198;2023-06-26T08:36:51;7.03;;;6.32;;
8594;SDS011;4335;48.860;9.198;2023-06-26T08:39:29;5.90;;;5.32;;
8594;SDS011;4335;48.860;9.198;2023-06-26T08:41:56;6.78;;;5.25;;
8594;SDS011;4335;48.860;9.198;2023-06-26T08:44:24;7.78;;;5.15;;
8594;SDS011;4335;48.860;9.198;2023-06-26T08:46:54;5.20;;;4.60;;
8594;SDS011;4335;48.860;9.198;2023-06-26T08:49:29;5.43;;;5.00;;
8594;SDS011;4335;48.860;9.198;2023-06-26T08:52:06;5.22;;;4.72;;
8594;SDS011;4335;48.860;9.198;2023-06-26T08:54:40;5.28;;;4.78;;
8594;SDS011;4335;48.860;9.198;2023-06-26T08:57:18;8.45;;;4.85;;
8594;SDS011;4335;48.860;9.198;2023-06-26T08:59:49;5.15;;;4.65;;
8594;SDS011;4335;48.860;9.198;2023-06-26T09:02:26;5.97;;;5.47;;
8594;SDS011;4335;48.860;9.198;2023-06-26T09:04:57;5.18;;;4.78;;
8594;SDS011;4335;48.860;9.198;2023-06-26T09:07:24;5.07;;;4.50;;
8594;SDS011;4335;48.860;9.198;2023-06-26T09:09:56;5.40;;;4.80;;
8594;SDS011;4335;48.860;9.198;2023-06-26T09:12:27;5.53;;;4.57;;
8594;SDS011;4335;48.860;9.198;2023-06-26T09:14:57;5.03;;;4.50;;
8594;SDS011;4335;48.860;9.198;2023-06-26T09:17:38;5.43;;;4.75;;
8594;SDS011;4335;48.860;9.198;2023-06-26T09:20:12;5.38;;;4.88;;
8594;SDS011;4335;48.860;9.198;2023-06-26T09:22:41;5.32;;;4.80;;
8594;SDS011;4335;48.860;9.198;2023-06-26T09:25:11;8.70;;;5.53;;
8594;SDS011;4335;48.860;9.198;2023-06-26T09:27:41;5.32;;;4.82;;
8594;SDS011;4335;48.860;9.198;2023-06-26T09:30:10;4.88;;;4.47;;
8594;SDS011;4335;48.860;9.198;2023-06-26T09:32:38;5.72;;;5.05;;
8594;SDS011;4335;48.860;9.198;2023-06-26T09:35:11;6.75;;;4.70;;
8594;SDS011;4335;48.860;9.198;2023-06-26T09:37:39;6.18;;;4.45;;
8594;SDS011;4335;48.860;9.198;2023-06-26T09:40:07;4.80;;;4.30;;
8594;SDS011;4335;48.860;9.198;2023-06-26T09:42:37;6.28;;;4.38;;
8594;SDS011;4335;48.860;9.198;2023-06-26T09:45:04;4.35;;;4.00;;
8594;SDS011;4335;48.860;9.198;2023-06-26T09:47:33;8.93;;;4.43;;
8594;SDS011;4335;48.860;9.198;2023-06-26T09:50:04;6.35;;;4.43;;
8594;SDS011;4335;48.860;9.198;2023-06-26T09:52:32;5.88;;;4.63;;
8594;SDS011;4335;48.860;9.198;2023-06-26T09:55:18;6.50;;;5.28;;
8594;SDS011;4335;48.860;9.198;2023-06-26T09:57:49;6.78;;;4.68;;
8594;SDS011;4335;48.860;9.198;2023-06-26T10:00:22;5.30;;;4.40;;
8594;SDS011;4335;48.860;9.198;2023-06-26T10:02:49;6.05;;;5.45;;
8594;SDS011;4335;48.860;9.198;2023-06-26T10:05:17;8.07;;;5.35;;
8594;SDS011;4335;48.860;9.198;2023-06-26T10:07:47;5.30;;;4.80;;
8594;SDS011;4335;48.860;9.198;2023-06-26T10:10:15;9.13;;;5.78;;
8594;SDS011;4335;48.860;9.198;2023-06-26T10:12:51;4.90;;;4.50;;
8594;SDS011;4335;48.860;9.198;2023-06-26T10:15:27;5.53;;;5.05;;
8594;SDS011;4335;48.860;9.198;2023-06-26T10:17:56;6.00;;;5.40;;
8594;SDS011;4335;48.860;9.198;2023-06-26T10:20:24;6.22;;;5.57;;
8594;SDS011;4335;48.860;9.198;2023-06-26T10:22:57;5.90;;;5.40;;
8594;SDS011;4335;48.860;9.198;2023-06-26T10:25:30;7.78;;;5.47;;
8594;SDS011;4335;48.860;9.198;2023-06-26T10:28:02;6.30;;;5.68;;
8594;SDS011;4335;48.860;9.198;2023-06-26T10:30:31;5.32;;;4.82;;
8594;SDS011;4335;48.860;9.198;2023-06-26T10:33:02;8.18;;;5.47;;
8594;SDS011;4335;48.860;9.198;2023-06-26T10:35:43;5.65;;;5.03;;
8594;SDS011;4335;48.860;9.198;2023-06-26T10:38:14;5.80;;;5.30;;
8594;SDS011;4335;48.860;9.198;2023-06-26T10:40:48;5.35;;;4.88;;
8594;SDS011;4335;48.860;9.198;2023-06-26T10:43:16;10.18;;;5.28;;
8594;SDS011;4335;48.860;9.198;2023-06-26T10:45:45;8.73;;;5.50;;
8594;SDS011;4335;48.860;9.198;2023-06-26T10:48:20;5.55;;;5.00;;
8594;SDS011;4335;48.860;9.198;2023-06-26T10:50:49;6.60;;;5.78;;
8594;SDS011;4335;48.860;9.198;2023-06-26T10:53:21;8.50;;;5.43;;
8594;SDS011;4335;48.860;9.198;2023-06-26T10:55:58;6.30;;;5.72;;
8594;SDS011;4335;48.860;9.198;2023-06-26T10:58:33;6.75;;;5.13;;
8594;SDS011;4335;48.860;9.198;2023-06-26T11:01:21;7.80;;;5.93;;
8594;SDS011;4335;48.860;9.198;2023-06-26T11:03:49;8.43;;;5.35;;
8594;SDS011;4335;48.860;9.198;2023-06-26T11:06:30;6.07;;;5.38;;
8594;SDS011;4335;48.860;9.198;2023-06-26T11:09:05;6.18;;;5.50;;
8594;SDS011;4335;48.860;9.198;2023-06-26T11:14:31;7.13;;;6.15;;
8594;SDS011;4335;48.860;9.198;2023-06-26T11:16:58;6.03;;;5.38;;
8594;SDS011;4335;48.860;9.198;2023-06-26T11:19:25;6.07;;;5.40;;
8594;SDS011;4335;48.860;9.198;2023-06-26T11:21:57;7.85;;;6.40;;
8594;SDS011;4335;48.860;9.198;2023-06-26T11:24:25;6.63;;;5.63;;
8594;SDS011;4335;48.860;9.198;2023-06-26T11:26:52;7.05;;;5.70;;
8594;SDS011;4335;48.860;9.198;2023-06-26T11:29:20;6.65;;;5.90;;
8594;SDS011;4335;48.860;9.198;2023-06-26T11:31:46;6.38;;;5.78;;
8594;SDS011;4335;48.860;9.198;2023-06-26T11:34:24;6.20;;;5.47;;
8594;SDS011;4335;48.860;9.198;2023-06-26T11:36:56;9.38;;;5.95;;
8594;SDS011;4335;48.860;9.198;2023-06-26T11:39:23;6.65;;;6.05;;
8594;SDS011;4335;48.860;9.198;2023-06-26T11:41:50;6.80;;;5.82;;
8594;SDS011;4335;48.860;9.198;2023-06-26T11:44:17;6.22;;;5.63;;
8594;SDS011;4335;48.860;9.198;2023-06-26T11:46:46;7.20;;;5.80;;
8594;SDS011;4335;48.860;9.198;2023-06-26T11:49:16;6.30;;;5.50;;
8594;SDS011;4335;48.860;9.198;2023-06-26T11:51:43;7.40;;;5.82;;
8594;SDS011;4335;48.860;9.198;2023-06-26T11:54:16;8.07;;;5.97;;
8594;SDS011;4335;48.860;9.198;2023-06-26T11:56:56;5.68;;;5.18;;
8594;SDS011;4335;48.860;9.198;2023-06-26T11:59:24;6.30;;;5.70;;
8594;SDS011;4335;48.860;9.198;2023-06-26T12:01:59;6.90;;;5.97;;
8594;SDS011;4335;48.860;9.198;2023-06-26T12:04:26;6.65;;;4.60;;
8594;SDS011;4335;48.860;9.198;2023-06-26T12:06:53;6.53;;;4.95;;
8594;SDS011;4335;48.860;9.198;2023-06-26T12:09:22;6.63;;;5.53;;
8594;SDS011;4335;48.860;9.198;2023-06-26T12:11:51;6.40;;;5.80;;
8594;SDS011;4335;48.860;9.198;2023-06-26T12:14:19;8.57;;;5.97;;
8594;SDS011;4335;48.860;9.198;2023-06-26T12:16:47;6.13;;;5.28;;
8594;SDS011;4335;48.860;9.198;2023-06-26T12:19:15;7.35;;;5.32;;
8594;SDS011;4335;48.860;9.198;2023-06-26T12:21:46;7.47;;;5.60;;
8594;SDS011;4335;48.860;9.198;2023-06-26T12:24:14;8.00;;;5.65;;
8594;SDS011;4335;48.860;9.198;2023-06-26T12:26:44;8.10;;;5.70;;
8594;SDS011;4335;48.860;9.198;2023-06-26T12:29:12;6.10;;;5.45;;
8594;SDS011;4335;48.860;9.198;2023-06-26T12:31:43;9.05;;;6.18;;
8594;SDS011;4335;48.860;9.198;2023-06-26T12:34:11;6.65;;;5.03;;
8594;SDS011;4335;48.860;9.198;2023-06-26T12:36:45;7.43;;;5.88;;
8594;SDS011;4335;48.860;9.198;2023-06-26T12:39:15;5.60;;;5.10;;
8594;SDS011;4335;48.860;9.198;2023-06-26T12:41:49;8.23;;;5.50;;
8594;SDS011;4335;48.860;9.198;2023-06-26T12:44:21;6.85;;;5.63;;
8594;SDS011;4335;48.860;9.198;2023-06-26T12:46:54;6.55;;;5.85;;
8594;SDS011;4335;48.860;9.198;2023-06-26T12:49:31;5.68;;;5.15;;
8594;SDS011;4335;48.860;9.198;2023-06-26T12:52:08;5.93;;;4.95;;
8594;SDS011;4335;48.860;9.198;2023-06-26T12:55:04;6.43;;;5.65;;
8594;SDS011;4335;48.860;9.198;2023-06-26T12:57:35;6.00;;;5.50;;
8594;SDS011;4335;48.860;9.198;2023-06-26T13:00:01;6.20;;;5.60;;
8594;SDS011;4335;48.860;9.198;2023-06-26T13:02:35;6.38;;;5.60;;
8594;SDS011;4335;48.860;9.198;2023-06-26T13:05:04;7.45;;;5.50;;
8594;SDS011;4335;48.860;9.198;2023-06-26T13:07:36;6.38;;;5.78;;
8594;SDS011;4335;48.860;9.198;2023-06-26T13:10:08;7.47;;;5.25;;
8594;SDS011;4335;48.860;9.198;2023-06-26T13:12:55;6.43;;;5.72;;
8594;SDS011;4335;48.860;9.198;2023-06-26T13:15:25;5.65;;;5.10;;
8594;SDS011;4335;48.860;9.198;2023-06-26T13:17:52;6.90;;;5.75;;
8594;SDS011;4335;48.860;9.198;2023-06-26T13:20:24;5.97;;;4.95;;
8594;SDS011;4335;48.860;9.198;2023-06-26T13:22:52;8.55;;;5.50;;
8594;SDS011;4335;48.860;9.198;2023-06-26T13:25:22;6.60;;;5.47;;
8594;SDS011;4335;48.860;9.198;2023-06-26T13:28:01;8.73;;;5.70;;
8594;SDS011;4335;48.860;9.198;2023-06-26T13:30:40;5.15;;;4.72;;
8594;SDS011;4335;48.860;9.198;2023-06-26T13:33:07;5.60;;;5.10;;
8594;SDS011;4335;48.860;9.198;2023-06-26T13:35:34;6.72;;;4.75;;
8594;SDS011;4335;48.860;9.198;2023-06-26T13:38:10;6.18;;;5.10;;
8594;SDS011;4335;48.860;9.198;2023-06-26T13:40:39;8.82;;;5.03;;
8594;SDS011;4335;48.860;9.198;2023-06-26T13:43:06;5.78;;;4.72;;
8594;SDS011;4335;48.860;9.198;2023-06-26T13:45:44;4.82;;;4.30;;
8594;SDS011;4335;48.860;9.198;2023-06-26T13:48:11;5.30;;;4.80;;
8594;SDS011;4335;48.860;9.198;2023-06-26T13:50:38;5.03;;;4.53;;
8594;SDS011;4335;48.860;9.198;2023-06-26T13:53:04;17.67;;;9.95;;
8594;SDS011;4335;48.860;9.198;2023-06-26T13:55:32;7.35;;;5.40;;
8594;SDS011;4335;48.860;9.198;2023-06-26T13:57:59;10.95;;;7.35;;
8594;SDS011;4335;48.860;9.198;2023-06-26T14:00:26;12.98;;;9.43;;
8594;SDS011;4335;48.860;9.198;2023-06-26T14:02:56;7.05;;;6.20;;
8594;SDS011;4335;48.860;9.198;2023-06-26T14:05:26;12.48;;;5.72;;
8594;SDS011;4335;48.860;9.198;2023-06-26T14:07:59;6.40;;;4.40;;
8594;SDS011;4335;48.860;9.198;2023-06-26T14:10:28;8.93;;;5.70;;
8594;SDS011;4335;48.860;9.198;2023-06-26T14:13:05;6.53;;;5.15;;
8594;SDS011;4335;48.860;9.198;2023-06-26T14:15:40;6.07;;;5.40;;
8594;SDS011;4335;48.860;9.198;2023-06-26T14:18:07;6.07;;;5.32;;
8594;SDS011;4335;48.860;9.198;2023-06-26T14:20:34;9.43;;;5.13;;
8594;SDS011;4335;48.860;9.198;2023-06-26T14:23:01;13.43;;;9.15;;
8594;SDS011;4335;48.860;9.198;2023-06-26T14:25:28;10.85;;;6.07;;
8594;SDS011;4335;48.860;9.198;2023-06-26T14:27:56;4.72;;;3.72;;
8594;SDS011;4335;48.860;9.198;2023-06-26T14:30:24;6.60;;;4.10;;
8594;SDS011;4335;48.860;9.198;2023-06-26T14:32:53;4.70;;;3.60;;
8594;SDS011;4335;48.860;9.198;2023-06-26T14:35:20;4.53;;;3.60;;
8594;SDS011;4335;48.860;9.198;2023-06-26T14:37:53;4.18;;;3.15;;
8594;SDS011;4335;48.860;9.198;2023-06-26T14:40:19;4.00;;;3.10;;
8594;SDS011;4335;48.860;9.198;2023-06-26T14:42:52;3.88;;;3.40;;
8594;SDS011;4335;48.860;9.198;2023-06-26T14:45:19;6.15;;;3.97;;
8594;SDS011;4335;48.860;9.198;2023-06-26T14:47:50;3.90;;;3.60;;
8594;SDS011;4335;48.860;9.198;2023-06-26T14:50:19;10.10;;;4.28;;
8594;SDS011;4335;48.860;9.198;2023-06-26T14:52:49;3.67;;;3.20;;
8594;SDS011;4335;48.860;9.198;2023-06-26T14:55:16;4.55;;;3.70;;
8594;SDS011;4335;48.860;9.198;2023-06-26T14:57:45;5.15;;;3.55;;
8594;SDS011;4335;48.860;9.198;2023-06-26T15:00:12;4.30;;;3.53;;
8594;SDS011;4335;48.860;9.198;2023-06-26T15:02:40;3.83;;;3.17;;
8594;SDS011;4335;48.860;9.198;2023-06-26T15:05:07;4.30;;;3.67;;
8594;SDS011;4335;48.860;9.198;2023-06-26T15:07:37;4.15;;;3.55;;
8594;SDS011;4335;48.860;9.198;2023-06-26T15:10:06;6.90;;;3.90;;
8594;SDS011;4335;48.860;9.198;2023-06-26T15:12:35;5.13;;;3.75;;
8594;SDS011;4335;48.860;9.198;2023-06-26T15:15:01;4.63;;;4.05;;
8594;SDS011;4335;48.860;9.198;2023-06-26T15:17:41;7.22;;;5.97;;
8594;SDS011;4335;48.860;9.198;2023-06-26T15:20:10;5.32;;;4.68;;
8594;SDS011;4335;48.860;9.198;2023-06-26T15:22:41;5.90;;;4.43;;
8594;SDS011;4335;48.860;9.198;2023-06-26T15:25:08;4.82;;;4.30;;
8594;SDS011;4335;48.860;9.198;2023-06-26T15:27:36;5.90;;;3.95;;
8594;SDS011;4335;48.860;9.198;2023-06-26T15:30:03;5.15;;;4.65;;
8594;SDS011;4335;48.860;9.198;2023-06-26T15:32:31;5.55;;;5.05;;
8594;SDS011;4335;48.860;9.198;2023-06-26T15:35:04;6.00;;;5.03;;
8594;SDS011;4335;48.860;9.198;2023-06-26T15:37:31;7.32;;;5.05;;